New Rooks County (RCP)
Stockton, KS
Field Elevation: 1999
Lat: 39°20.80N  Long: 99°18.28W
CTAF/Unicom Freq: 122.9000
   
    
Weather Advisories
4/19/2014 07:00 Z
Altimeter 29.98" Hg
Wind 170° @ 19 KT
Gusts 27 KT
Visibility 10 SM
Temperature 14° C (57° F)
Dewpoint 7° C (45° F)
Relative Humidity 63%
Density Altitude --
Condensation Altitude 5,300 feet
  Wind and Runways
Indicated Runway = 18
History
 
 
More Info
All DigiWx sites map
NOAA Forecast
 
Airport IQ 5010
(FLV) Sherman Airfield
(K68) Garnett Municipal Airport
 
about DigiWx
 
FAA Disclaimer: The data displayed is for advisory purposes only and is not to be used for flight planning or operations. For official data, please call (not available) to hear the current automated AWOS voice message.
  METAR RCP 190700Z AUTO 17019G27KT 10SM 14/07 A2998